createdAt,value
2018-10-19T00:01:07.638Z,66.78
2018-10-19T00:03:36.620Z,67.25
2018-10-19T00:06:05.627Z,67.73
2018-10-19T00:08:34.619Z,67.73
2018-10-19T00:11:03.613Z,66.97
2018-10-19T00:13:32.590Z,65.98
2018-10-19T00:16:01.579Z,65.34
2018-10-19T00:18:30.730Z,65.81
2018-10-19T00:20:59.981Z,66.95
2018-10-19T00:23:29.148Z,66.89
2018-10-19T00:25:58.210Z,67.17
2018-10-19T00:28:27.506Z,68.36
2018-10-19T00:30:56.580Z,67.28
2018-10-19T00:33:25.819Z,66.60
2018-10-19T00:35:54.793Z,67.60
2018-10-19T00:38:24.036Z,68.70
2018-10-19T00:40:53.563Z,69.58
2018-10-19T00:43:22.551Z,67.23
2018-10-19T00:45:51.579Z,67.79
2018-10-19T00:48:21.239Z,66.94
2018-10-19T00:50:50.252Z,67.73
2018-10-19T00:53:19.235Z,67.10
2018-10-19T00:55:48.455Z,68.23
2018-10-19T00:58:17.776Z,68.38
2018-10-19T01:00:46.783Z,67.26
2018-10-19T01:03:16.422Z,68.40
2018-10-19T01:05:45.320Z,66.05
2018-10-19T01:08:14.803Z,67.91
2018-10-19T01:10:44.092Z,66.46
2018-10-19T01:13:13.651Z,67.68
2018-10-19T01:15:42.619Z,67.58
2018-10-19T01:18:11.588Z,67.38
2018-10-19T01:20:40.571Z,66.01
2018-10-19T01:23:09.588Z,66.00
2018-10-19T01:25:42.554Z,66.35
2018-10-19T01:28:12.366Z,67.08
2018-10-19T01:30:41.884Z,66.90
2018-10-19T01:33:11.045Z,65.47
2018-10-19T01:35:40.214Z,65.11
2018-10-19T01:38:09.195Z,66.36
2018-10-19T01:40:38.158Z,66.09
2018-10-19T01:43:07.187Z,67.46
2018-10-19T01:45:36.166Z,65.07
2018-10-19T01:48:05.151Z,66.46
2018-10-19T01:50:34.507Z,67.63
2018-10-19T01:53:03.530Z,67.17
2018-10-19T01:55:32.578Z,67.03
2018-10-19T01:58:01.559Z,66.86
2018-10-19T02:00:30.560Z,66.43
2018-10-19T02:02:59.569Z,67.04
2018-10-19T02:05:28.815Z,67.29
2018-10-19T02:07:57.816Z,67.32
2018-10-19T02:10:26.819Z,68.43
2018-10-19T02:12:56.054Z,65.77
2018-10-19T02:15:25.402Z,66.28
2018-10-19T02:17:54.377Z,65.18
2018-10-19T02:20:23.343Z,66.30
2018-10-19T02:22:52.438Z,67.33
2018-10-19T02:25:21.394Z,66.33
2018-10-19T02:27:50.591Z,66.37
2018-10-19T02:30:19.822Z,66.27
2018-10-19T02:32:48.826Z,67.13
2018-10-19T02:35:17.854Z,67.66
2018-10-19T02:37:47.018Z,66.55
2018-10-19T02:40:16.280Z,66.04
2018-10-19T02:42:45.302Z,65.67
2018-10-19T02:45:14.475Z,65.35
2018-10-19T02:47:43.392Z,65.93
2018-10-19T02:50:12.358Z,65.31
2018-10-19T02:52:41.316Z,64.94
2018-10-19T02:55:10.439Z,66.33
2018-10-19T02:57:39.456Z,66.55
2018-10-19T03:00:10.784Z,66.42
2018-10-19T03:02:39.986Z,65.92
2018-10-19T03:05:09.636Z,65.34
2018-10-19T03:07:38.787Z,65.40
2018-10-19T03:10:08.298Z,65.76
2018-10-19T03:12:37.258Z,66.02
2018-10-19T03:15:07.840Z,67.24
2018-10-19T03:17:36.676Z,66.40
2018-10-19T03:20:07.084Z,65.93
2018-10-19T03:22:36.555Z,67.01
2018-10-19T03:25:05.528Z,67.11
2018-10-19T03:27:34.552Z,67.48
2018-10-19T03:30:04.490Z,68.56
2018-10-19T03:32:33.486Z,66.75
2018-10-19T03:35:02.701Z,67.38
2018-10-19T03:37:31.832Z,66.59
2018-10-19T03:40:00.796Z,66.32
2018-10-19T03:42:29.805Z,66.48
2018-10-19T03:44:58.860Z,66.60
2018-10-19T03:47:27.909Z,66.04
2018-10-19T03:49:56.878Z,66.26
2018-10-19T03:52:25.854Z,67.06
2018-10-19T03:54:55.347Z,66.31
2018-10-19T03:57:24.333Z,67.80
2018-10-19T03:59:53.319Z,67.87
2018-10-19T04:02:22.315Z,66.91
2018-10-19T04:04:51.291Z,67.13
2018-10-19T04:07:20.580Z,66.47
2018-10-19T04:09:49.575Z,66.90
2018-10-19T04:12:18.840Z,67.07
2018-10-19T04:14:47.826Z,67.98
2018-10-19T04:17:16.961Z,68.01
2018-10-19T04:19:45.854Z,67.87
2018-10-19T04:22:15.017Z,67.58
2018-10-19T04:24:43.989Z,68.52
2018-10-19T04:27:12.999Z,68.65
2018-10-19T04:29:42.403Z,68.46
2018-10-19T04:32:11.629Z,68.67
2018-10-19T04:34:40.678Z,68.34
2018-10-19T04:37:09.682Z,68.47
2018-10-19T04:39:39.073Z,68.10
2018-10-19T04:42:08.246Z,68.55
2018-10-19T04:44:37.102Z,68.60
2018-10-19T04:47:06.445Z,68.87
2018-10-19T04:49:35.418Z,70.65
2018-10-19T04:52:04.794Z,70.47
2018-10-19T04:54:33.775Z,70.03
2018-10-19T04:57:02.913Z,69.61
2018-10-19T04:59:31.843Z,71.06
2018-10-19T05:02:00.810Z,70.79
2018-10-19T05:04:29.881Z,69.32
2018-10-19T05:06:58.912Z,69.99
2018-10-19T05:09:27.884Z,68.60
2018-10-19T05:11:56.933Z,69.12
2018-10-19T05:14:25.903Z,69.32
2018-10-19T05:16:54.930Z,70.09
2018-10-19T05:19:24.588Z,70.28
2018-10-19T05:21:53.688Z,70.29
2018-10-19T05:24:22.686Z,70.09
2018-10-19T05:26:51.901Z,70.24
2018-10-19T05:29:21.024Z,70.88
2018-10-19T05:31:50.256Z,71.48
2018-10-19T05:34:19.242Z,70.08
2018-10-19T05:36:48.229Z,70.15
2018-10-19T05:39:17.226Z,70.09
2018-10-19T05:41:46.264Z,70.47
2018-10-19T05:44:15.571Z,70.55
2018-10-19T05:46:44.474Z,69.94
2018-10-19T05:49:13.516Z,70.29
2018-10-19T05:51:42.642Z,70.20
2018-10-19T05:54:11.917Z,69.12
2018-10-19T05:56:40.900Z,69.81
2018-10-19T05:59:10.218Z,70.34
2018-10-19T06:01:39.158Z,69.83
2018-10-19T06:04:08.130Z,69.79
2018-10-19T06:06:37.555Z,69.05
2018-10-19T06:09:08.041Z,69.60
2018-10-19T06:11:37.030Z,69.92
2018-10-19T06:14:06.734Z,70.17
2018-10-19T06:16:35.993Z,70.08
2018-10-19T06:19:04.989Z,70.51
2018-10-19T06:21:33.964Z,69.54
2018-10-19T06:24:02.947Z,68.60
2018-10-19T06:26:31.976Z,68.53
2018-10-19T06:29:01.110Z,68.20
2018-10-19T06:31:30.511Z,68.35
2018-10-19T06:33:59.602Z,69.20
2018-10-19T06:36:28.582Z,69.84
2018-10-19T06:38:57.554Z,67.86
2018-10-19T06:41:26.899Z,68.61
2018-10-19T06:43:55.922Z,69.31
2018-10-19T06:46:24.927Z,69.08
2018-10-19T06:48:53.959Z,68.42
2018-10-19T06:51:22.886Z,68.64
2018-10-19T06:53:52.010Z,66.98
2018-10-19T06:56:21.010Z,68.33
2018-10-19T06:58:50.189Z,69.64
2018-10-19T07:01:19.846Z,69.05
2018-10-19T07:03:49.173Z,68.67
2018-10-19T07:06:18.189Z,68.84
2018-10-19T07:08:47.452Z,68.82
2018-10-19T07:11:16.575Z,67.50
2018-10-19T07:13:45.548Z,69.08
2018-10-19T07:16:14.758Z,70.18
2018-10-19T07:18:43.799Z,69.84
2018-10-19T07:21:13.108Z,69.81
2018-10-19T07:23:42.121Z,70.28
2018-10-19T07:26:11.188Z,69.65
2018-10-19T07:28:40.094Z,68.60
2018-10-19T07:31:09.239Z,69.44
2018-10-19T07:33:38.463Z,68.51
2018-10-19T07:36:07.940Z,68.51
2018-10-19T07:38:36.934Z,67.60
2018-10-19T07:41:06.025Z,67.04
2018-10-19T07:43:35.063Z,67.29
2018-10-19T07:46:04.162Z,67.16
2018-10-19T07:48:33.379Z,67.78
2018-10-19T07:51:02.387Z,67.43
2018-10-19T07:53:31.969Z,65.94
2018-10-19T07:56:01.203Z,67.48
2018-10-19T07:58:30.138Z,67.33
2018-10-19T08:00:59.600Z,67.82
2018-10-19T08:03:29.030Z,67.16
2018-10-19T08:05:58.771Z,68.33
2018-10-19T08:08:27.890Z,66.41
2018-10-19T08:10:56.935Z,65.73
2018-10-19T08:13:25.947Z,66.11
2018-10-19T08:15:55.008Z,66.53
2018-10-19T08:18:24.081Z,66.18
2018-10-19T08:20:53.216Z,66.62
2018-10-19T08:23:22.215Z,66.24
2018-10-19T08:25:51.204Z,66.31
2018-10-19T08:28:20.671Z,65.06
2018-10-19T08:30:49.727Z,65.76
2018-10-19T08:33:18.852Z,65.88
2018-10-19T08:35:47.881Z,66.12
2018-10-19T08:38:17.154Z,65.73
2018-10-19T08:40:46.129Z,64.82
2018-10-19T08:43:15.701Z,65.12
2018-10-19T08:45:44.646Z,65.44
2018-10-19T08:48:14.358Z,66.26
2018-10-19T08:50:43.434Z,66.10
2018-10-19T08:53:12.993Z,66.37
2018-10-19T08:55:42.330Z,65.94
2018-10-19T08:58:11.343Z,66.65
2018-10-19T09:00:40.299Z,64.84
2018-10-19T09:03:09.626Z,64.99
2018-10-19T09:05:38.617Z,63.78
2018-10-19T09:08:07.715Z,63.66
2018-10-19T09:10:36.721Z,64.72
2018-10-19T09:13:06.464Z,65.52
2018-10-19T09:15:35.716Z,64.71
2018-10-19T09:18:04.763Z,66.24
2018-10-19T09:20:34.029Z,64.79
2018-10-19T09:23:03.067Z,63.43
2018-10-19T09:25:32.638Z,65.64
2018-10-19T09:28:01.786Z,65.91
2018-10-19T09:30:30.958Z,66.98
2018-10-19T09:33:00.403Z,66.40
2018-10-19T09:35:29.547Z,66.12
2018-10-19T09:37:58.713Z,65.40
2018-10-19T09:40:27.859Z,66.62
2018-10-19T09:42:56.971Z,68.50
2018-10-19T09:45:26.002Z,69.58
2018-10-19T09:47:55.055Z,67.93
2018-10-19T09:50:24.590Z,64.62
2018-10-19T09:52:53.625Z,63.86
2018-10-19T09:55:22.962Z,63.59
2018-10-19T09:57:53.331Z,61.83
2018-10-19T10:00:27.855Z,62.62
2018-10-19T10:02:57.275Z,63.15
2018-10-19T10:05:26.220Z,62.92
2018-10-19T10:07:56.047Z,59.88
2018-10-19T10:10:25.056Z,60.20
2018-10-19T10:12:54.730Z,61.95
2018-10-19T10:15:23.783Z,63.59
2018-10-19T10:17:53.025Z,61.21
2018-10-19T10:20:21.997Z,60.49
2018-10-19T10:22:51.018Z,59.07
2018-10-19T10:25:20.186Z,58.97
2018-10-19T10:27:49.166Z,58.77
2018-10-19T10:30:18.531Z,59.95
2018-10-19T10:32:47.571Z,58.83
2018-10-19T10:35:16.652Z,60.94
2018-10-19T10:37:45.834Z,60.96
2018-10-19T10:40:14.859Z,59.88
2018-10-19T10:42:43.887Z,59.09
2018-10-19T10:45:13.142Z,60.05
2018-10-19T10:47:42.291Z,57.80
2018-10-19T10:50:11.396Z,57.46
2018-10-19T10:52:40.450Z,58.01
2018-10-19T10:55:09.547Z,58.83
2018-10-19T10:57:38.541Z,56.85
2018-10-19T11:00:08.168Z,56.15
2018-10-19T11:02:37.146Z,56.33
2018-10-19T11:05:06.866Z,56.35
2018-10-19T11:07:36.059Z,54.84
2018-10-19T11:10:05.473Z,54.66
2018-10-19T11:12:34.631Z,53.85
2018-10-19T11:15:03.778Z,55.61
2018-10-19T11:17:32.801Z,56.53
2018-10-19T11:20:02.241Z,55.53
2018-10-19T11:22:31.871Z,54.97
2018-10-19T11:25:01.205Z,55.27
2018-10-19T11:27:30.171Z,57.72
2018-10-19T11:29:59.152Z,55.74
2018-10-19T11:32:28.217Z,56.36
2018-10-19T11:34:57.267Z,55.75
2018-10-19T11:37:26.363Z,53.93
2018-10-19T11:40:35.622Z,53.56
2018-10-19T11:43:04.947Z,52.30
2018-10-19T11:45:34.738Z,53.84
2018-10-19T11:48:04.349Z,53.30
2018-10-19T11:50:33.861Z,52.77
2018-10-19T11:53:03.182Z,53.04
2018-10-19T11:55:32.212Z,54.43
2018-10-19T11:58:01.380Z,55.46
2018-10-19T12:00:30.478Z,56.30
2018-10-19T12:02:59.613Z,54.46
2018-10-19T12:05:28.622Z,55.13
2018-10-19T12:07:57.591Z,55.16
2018-10-19T12:10:26.603Z,52.60
2018-10-19T12:12:55.648Z,54.66
2018-10-19T12:15:24.672Z,53.94
2018-10-19T12:17:53.727Z,52.37
2018-10-19T12:20:22.708Z,51.84
2018-10-19T12:22:51.698Z,52.18
2018-10-19T12:25:20.702Z,51.50
2018-10-19T12:27:50.164Z,51.10
2018-10-19T12:30:19.251Z,50.75
2018-10-19T12:32:48.309Z,51.30
2018-10-19T12:35:17.282Z,51.10
2018-10-19T12:37:46.486Z,51.98
2018-10-19T12:40:15.481Z,50.76
2018-10-19T12:42:44.457Z,50.80
2018-10-19T12:46:35.943Z,50.36
2018-10-19T12:49:05.161Z,50.41
2018-10-19T12:51:34.433Z,51.53
2018-10-19T12:54:03.555Z,51.00
2018-10-19T12:56:32.559Z,48.59
2018-10-19T12:59:01.582Z,49.34
2018-10-19T13:01:31.274Z,49.63
2018-10-19T13:04:00.890Z,49.87
2018-10-19T13:06:36.936Z,49.07
2018-10-19T13:09:10.440Z,47.88
2018-10-19T13:11:39.490Z,49.16
2018-10-19T13:14:08.607Z,48.37
2018-10-19T13:16:37.650Z,49.24
2018-10-19T13:19:06.654Z,49.90
2018-10-19T13:21:35.641Z,49.53
2018-10-19T13:24:05.505Z,49.38
2018-10-19T13:26:34.553Z,49.47
2018-10-19T13:29:03.698Z,49.20
2018-10-19T13:31:32.870Z,48.50
2018-10-19T13:34:02.501Z,48.86
2018-10-19T13:36:31.545Z,48.86
2018-10-19T13:39:00.547Z,48.31
2018-10-19T13:41:29.634Z,47.80
2018-10-19T13:43:58.926Z,47.75
2018-10-19T13:46:28.021Z,48.06
2018-10-19T13:48:57.066Z,48.48
2018-10-19T13:51:26.085Z,48.00
2018-10-19T13:53:55.111Z,48.80
2018-10-19T13:56:24.512Z,49.37
2018-10-19T13:58:53.742Z,48.91
2018-10-19T14:01:23.065Z,48.82
2018-10-19T14:03:52.319Z,48.44
2018-10-19T14:06:21.793Z,48.43
2018-10-19T14:08:51.100Z,49.03
2018-10-19T14:11:20.333Z,48.93
2018-10-19T14:13:49.944Z,48.52
2018-10-19T14:16:19.033Z,49.48
2018-10-19T14:18:48.027Z,49.02
2018-10-19T14:21:17.132Z,49.49
2018-10-19T14:23:46.443Z,50.29
2018-10-19T14:26:15.635Z,49.66
2018-10-19T14:28:44.617Z,48.81
2018-10-19T14:31:13.622Z,48.73
2018-10-19T14:33:42.767Z,49.97
2018-10-19T14:36:11.717Z,49.38
2018-10-19T14:38:40.757Z,49.73
2018-10-19T14:41:09.838Z,48.82
2018-10-19T14:43:38.843Z,49.01
2018-10-19T14:46:08.102Z,48.25
2018-10-19T14:48:37.072Z,48.23
2018-10-19T14:51:06.745Z,49.03
2018-10-19T14:53:36.365Z,48.69
2018-10-19T14:56:05.461Z,49.31
2018-10-19T14:58:34.552Z,48.77
2018-10-19T15:01:03.606Z,49.02
2018-10-19T15:03:32.602Z,48.83
2018-10-19T15:06:01.792Z,48.74
2018-10-19T15:08:30.835Z,49.20
2018-10-19T15:10:59.985Z,49.45
2018-10-19T15:13:28.872Z,49.50
2018-10-19T15:15:57.967Z,48.87
2018-10-19T15:18:27.373Z,49.19
2018-10-19T15:20:56.441Z,49.31
2018-10-19T15:23:25.658Z,50.48
2018-10-19T15:25:54.714Z,49.70
2018-10-19T15:28:24.307Z,49.67
2018-10-19T15:30:53.730Z,50.13
2018-10-19T15:33:22.779Z,50.60
2018-10-19T15:35:52.051Z,50.12
2018-10-19T15:38:21.050Z,50.06
2018-10-19T15:40:50.371Z,50.49
2018-10-19T15:43:19.623Z,50.91
2018-10-19T15:45:49.091Z,51.29
2018-10-19T15:48:18.315Z,51.31
2018-10-19T15:50:47.590Z,50.83
2018-10-19T15:53:16.991Z,51.47
2018-10-19T15:55:46.231Z,50.81
2018-10-19T15:58:15.241Z,51.56
2018-10-19T16:00:44.462Z,51.89
2018-10-19T16:03:13.480Z,51.74
2018-10-19T16:05:42.693Z,52.27
2018-10-19T16:08:12.349Z,51.68
2018-10-19T16:10:41.722Z,52.09
2018-10-19T16:13:10.722Z,52.17
2018-10-19T16:15:39.735Z,51.48
2018-10-19T16:18:09.091Z,52.34
2018-10-19T16:20:38.078Z,51.86
2018-10-19T16:23:07.129Z,51.65
2018-10-19T16:25:36.192Z,52.28
2018-10-19T16:28:05.771Z,51.80
2018-10-19T16:30:34.917Z,52.16
2018-10-19T16:33:03.986Z,52.04
2018-10-19T16:35:32.968Z,52.10
2018-10-19T16:38:02.064Z,52.32
2018-10-19T16:40:31.305Z,52.33
2018-10-19T16:43:00.687Z,52.40
2018-10-19T16:45:30.071Z,52.66
2018-10-19T16:47:59.144Z,53.18
2018-10-19T16:50:28.392Z,53.00
2018-10-19T16:52:57.417Z,53.17
2018-10-19T16:55:26.370Z,53.46
2018-10-19T16:57:55.532Z,53.28
2018-10-19T17:00:24.838Z,53.24
2018-10-19T17:02:54.199Z,53.27
2018-10-19T17:05:23.247Z,54.32
2018-10-19T17:07:52.218Z,54.59
2018-10-19T17:10:21.387Z,53.63
2018-10-19T17:12:50.797Z,54.32
2018-10-19T17:15:19.816Z,54.39
2018-10-19T17:17:49.043Z,54.02
2018-10-19T17:20:18.086Z,54.49
2018-10-19T17:22:47.129Z,55.88
2018-10-19T17:25:16.252Z,55.64
2018-10-19T17:27:45.229Z,55.15
2018-10-19T17:30:14.677Z,55.22
2018-10-19T17:32:43.692Z,55.53
2018-10-19T17:35:13.227Z,55.40
2018-10-19T17:37:42.478Z,55.40
2018-10-19T17:40:11.711Z,56.00
2018-10-19T17:42:40.716Z,56.61
2018-10-19T17:45:10.892Z,54.84
2018-10-19T17:47:39.879Z,55.26
2018-10-19T17:50:09.613Z,55.24
2018-10-19T17:52:40.534Z,55.52
2018-10-19T17:55:11.700Z,55.38
2018-10-19T17:57:42.825Z,55.94
2018-10-19T18:00:13.177Z,55.86
2018-10-19T18:02:42.234Z,55.17
2018-10-19T18:05:11.487Z,55.22
2018-10-19T18:07:40.627Z,55.27
2018-10-19T18:10:10.974Z,55.59
2018-10-19T18:12:40.281Z,55.76
2018-10-19T18:15:13.173Z,56.75
2018-10-19T18:17:43.722Z,58.15
2018-10-19T18:20:13.048Z,57.03
2018-10-19T18:22:43.692Z,56.99
2018-10-19T18:25:13.855Z,57.46
2018-10-19T18:27:45.410Z,56.38
2018-10-19T18:30:15.056Z,55.93
2018-10-19T18:32:44.822Z,55.64
2018-10-19T18:35:15.088Z,56.31
2018-10-19T18:37:44.477Z,56.06
2018-10-19T18:40:14.330Z,55.53
2018-10-19T18:42:44.146Z,56.39
2018-10-19T18:45:13.206Z,55.45
2018-10-19T18:47:43.582Z,55.61
2018-10-19T18:50:12.656Z,55.89
2018-10-19T18:52:46.069Z,56.74
2018-10-19T18:55:15.527Z,56.94
2018-10-19T18:57:45.486Z,57.15
2018-10-19T19:00:14.554Z,56.60
2018-10-19T19:02:44.784Z,56.60
2018-10-19T19:05:14.873Z,56.72
2018-10-19T19:07:44.375Z,56.77
2018-10-19T19:10:15.263Z,57.55
2018-10-19T19:12:44.590Z,58.27
2018-10-19T19:15:14.007Z,57.81
2018-10-19T19:17:44.506Z,57.80
2018-10-19T19:20:19.193Z,58.14
2018-10-19T19:22:49.458Z,58.23
2018-10-19T19:25:24.114Z,57.92
2018-10-19T19:27:53.883Z,57.91
2018-10-19T19:30:25.853Z,57.65
2018-10-19T19:33:00.498Z,58.79
2018-10-19T19:35:30.109Z,58.40
2018-10-19T19:37:59.586Z,58.61
2018-10-19T19:40:34.049Z,58.89
2018-10-19T19:43:04.667Z,59.25
2018-10-19T19:45:33.696Z,59.16
2018-10-19T19:48:08.096Z,59.18
2018-10-19T19:50:37.760Z,58.66
2018-10-19T19:53:06.867Z,58.58
2018-10-19T19:55:37.360Z,58.81
2018-10-19T19:58:07.997Z,59.39
2018-10-19T20:00:38.648Z,59.35
2018-10-19T20:03:08.263Z,59.58
2018-10-19T20:05:37.743Z,59.06
2018-10-19T20:08:08.747Z,58.70
2018-10-19T20:10:39.466Z,58.86
2018-10-19T20:13:08.585Z,59.46
2018-10-19T20:15:38.725Z,59.14
2018-10-19T20:18:08.672Z,59.48
2018-10-19T20:20:39.630Z,58.72
2018-10-19T20:23:08.983Z,60.43
2018-10-19T20:25:40.565Z,60.43
2018-10-19T20:28:09.627Z,60.40
2018-10-19T20:30:38.963Z,60.52
2018-10-19T20:33:09.029Z,60.51
2018-10-19T20:35:38.917Z,60.21
2018-10-19T20:38:08.102Z,59.64
2018-10-19T20:40:37.393Z,59.12
2018-10-19T20:43:08.676Z,59.51
2018-10-19T20:45:37.720Z,59.46
2018-10-19T20:48:08.027Z,59.95
2018-10-19T20:50:40.118Z,60.45
2018-10-19T20:53:10.955Z,60.04
2018-10-19T20:55:41.842Z,59.78
2018-10-19T20:58:11.407Z,60.42
2018-10-19T21:00:41.254Z,60.21
2018-10-19T21:03:11.809Z,61.81
2018-10-19T21:05:42.678Z,60.62
2018-10-19T21:08:14.123Z,60.65
2018-10-19T21:10:43.695Z,60.92
2018-10-19T21:13:12.853Z,60.46
2018-10-19T21:15:44.052Z,61.17
2018-10-19T21:18:13.076Z,60.10
2018-10-19T21:20:42.115Z,60.45
2018-10-19T21:23:11.307Z,60.38
2018-10-19T21:25:40.480Z,61.08
2018-10-19T21:28:10.110Z,61.47
2018-10-19T21:30:39.382Z,61.39
2018-10-19T21:33:08.543Z,61.36
2018-10-19T21:35:39.231Z,61.79
2018-10-19T21:38:08.432Z,61.15
2018-10-19T21:40:37.427Z,60.71
2018-10-19T21:43:06.626Z,61.10
2018-10-19T21:45:36.027Z,60.28
2018-10-19T21:48:05.520Z,60.45
2018-10-19T21:50:34.598Z,61.01
2018-10-19T21:53:04.847Z,61.41
2018-10-19T21:55:33.918Z,61.05
2018-10-19T21:58:03.701Z,60.72
2018-10-19T22:00:32.704Z,61.18
2018-10-19T22:03:02.475Z,60.92
2018-10-19T22:05:31.513Z,61.04
2018-10-19T22:08:00.769Z,61.66
2018-10-19T22:10:29.755Z,61.69
2018-10-19T22:12:58.747Z,61.87
2018-10-19T22:15:27.727Z,61.29
2018-10-19T22:17:56.770Z,61.05
2018-10-19T22:20:25.809Z,62.10
2018-10-19T22:22:55.066Z,61.64
2018-10-19T22:25:24.232Z,61.71
2018-10-19T22:27:53.270Z,62.44
2018-10-19T22:30:22.262Z,62.71
2018-10-19T22:32:51.331Z,63.16
2018-10-19T22:35:20.465Z,63.10
2018-10-19T22:37:49.534Z,62.99
2018-10-19T22:40:19.017Z,62.66
2018-10-19T22:42:49.128Z,63.13
2018-10-19T22:45:18.719Z,62.73
2018-10-19T22:47:47.775Z,63.28
2018-10-19T22:50:16.775Z,62.23
2018-10-19T22:52:45.929Z,63.43
2018-10-19T22:55:15.281Z,63.15
2018-10-19T22:57:44.733Z,63.26
2018-10-19T23:00:13.766Z,62.17
2018-10-19T23:02:42.758Z,62.93
2018-10-19T23:05:11.888Z,62.68
2018-10-19T23:07:40.901Z,62.43
2018-10-19T23:10:10.217Z,61.99
2018-10-19T23:12:39.247Z,62.95
2018-10-19T23:15:08.617Z,62.83
2018-10-19T23:17:37.951Z,62.35
2018-10-19T23:20:07.837Z,62.98
2018-10-19T23:22:36.825Z,62.34
2018-10-19T23:25:07.200Z,63.59
2018-10-19T23:27:36.472Z,63.42
2018-10-19T23:30:06.556Z,63.53
2018-10-19T23:32:35.599Z,64.63
2018-10-19T23:35:05.371Z,63.47
2018-10-19T23:37:34.397Z,63.70
2018-10-19T23:40:03.407Z,64.05
2018-10-19T23:42:32.489Z,64.37
2018-10-19T23:45:01.512Z,63.79
2018-10-19T23:47:30.555Z,64.12
2018-10-19T23:49:59.563Z,63.47
2018-10-19T23:52:28.643Z,63.33
2018-10-19T23:54:57.906Z,63.58
2018-10-19T23:57:26.895Z,63.21
2018-10-19T23:59:56.101Z,62.99
